Time;durP1;ratioP1;P1;durP2;ratioP2;P2;SDS_P1;SDS_P2;PMS_P1;PMS_P2;Temp;Humidity;BMP_temperature;BMP_pressure;BME280_temperature;BME280_humidity;BME280_pressure;Samples;Min_cycle;Max_cycle;Signal;HPM_P1;HPM_P2
2023/08/19 00:00:45;;;;;;;6.70;6.03;;;;;;;23.51;nan;99234.94;5054493;28;20246;-75
2023/08/19 00:03:10;;;;;;;7.07;5.70;;;;;;;23.50;nan;99235.97;5038259;28;20260;-74
2023/08/19 00:05:36;;;;;;;8.20;4.93;;;;;;;23.50;nan;99244.00;5038452;28;20666;-74
2023/08/19 00:08:03;;;;;;;6.43;5.83;;;;;;;23.46;nan;99253.44;5050845;28;20251;-74
2023/08/19 00:10:28;;;;;;;8.30;5.40;;;;;;;23.38;nan;99248.19;5055551;28;20557;-74
2023/08/19 00:12:54;;;;;;;7.20;6.50;;;;;;;23.33;nan;99245.25;5054823;28;20449;-75
2023/08/19 00:15:19;;;;;;;5.53;5.03;;;;;;;23.31;nan;99248.13;5053354;28;20317;-74
2023/08/19 00:17:45;;;;;;;5.30;4.80;;;;;;;23.28;nan;99248.50;5051970;28;20200;-74
2023/08/19 00:20:11;;;;;;;6.70;6.00;;;;;;;23.29;nan;99252.03;5053431;28;21016;-74
2023/08/19 00:22:36;;;;;;;6.20;5.60;;;;;;;23.28;nan;99247.69;5055469;28;20577;-74
2023/08/19 00:25:04;;;;;;;6.00;5.40;;;;;;;23.29;nan;99252.03;5054217;28;20470;-74
2023/08/19 00:27:29;;;;;;;6.93;4.90;;;;;;;23.27;nan;99252.19;5057649;28;20196;-74
2023/08/19 00:29:55;;;;;;;5.67;4.90;;;;;;;23.26;nan;99247.03;5050044;28;20422;-74
2023/08/19 00:32:21;;;;;;;6.50;5.00;;;;;;;23.24;nan;99251.75;5035942;28;20449;-73
2023/08/19 00:34:47;;;;;;;6.00;5.53;;;;;;;23.22;nan;99251.91;5055752;28;20228;-74
2023/08/19 00:37:13;;;;;;;8.32;5.70;;;;;;;23.21;nan;99252.13;5031493;28;20532;-74
2023/08/19 00:39:38;;;;;;;5.20;4.67;;;;;;;23.12;nan;99257.59;5049305;28;20226;-74
2023/08/19 00:42:06;;;;;;;8.63;7.30;;;;;;;23.04;nan;99251.50;5037474;28;20200;-74
2023/08/19 00:44:34;;;;;;;5.40;4.90;;;;;;;22.99;nan;99252.06;5056012;28;20281;-74
2023/08/19 00:47:01;;;;;;;7.13;5.50;;;;;;;22.93;nan;99244.75;5036494;28;20422;-74
2023/08/19 00:49:28;;;;;;;7.03;6.33;;;;;;;22.82;nan;99253.22;5037950;28;20487;-74
2023/08/19 00:51:54;;;;;;;13.33;7.10;;;;;;;22.63;nan;99260.81;5055631;28;20437;-74
2023/08/19 00:54:19;;;;;;;6.30;5.67;;;;;;;22.46;nan;99264.66;5050527;28;20943;-74
2023/08/19 00:56:45;;;;;;;7.87;5.93;;;;;;;22.33;nan;99256.44;5053070;28;20441;-74
2023/08/19 00:59:11;;;;;;;9.33;5.63;;;;;;;22.27;nan;99256.16;5053298;28;20193;-74
2023/08/19 01:01:37;;;;;;;6.77;5.40;;;;;;;22.27;nan;99256.16;5050962;28;20212;-74
2023/08/19 01:04:03;;;;;;;6.37;5.70;;;;;;;22.32;nan;99260.97;5053208;28;20899;-74
2023/08/19 01:06:39;;;;;;;6.27;5.67;;;;;;;22.36;nan;99251.56;5054445;28;20201;-74
2023/08/19 01:09:22;;;;;;;5.83;5.30;;;;;;;22.41;nan;99248.31;5053362;28;20520;-73
2023/08/19 01:12:10;;;;;;;6.77;6.00;;;;;;;22.41;nan;99245.66;5051334;28;20524;-74
2023/08/19 01:14:46;;;;;;;6.60;5.37;;;;;;;22.39;nan;99245.03;5035310;28;20438;-74
2023/08/19 01:17:14;;;;;;;6.47;5.77;;;;;;;22.42;nan;99247.34;5050223;28;20455;-74
2023/08/19 01:19:41;;;;;;;6.30;5.70;;;;;;;22.39;nan;99237.00;5052647;28;20418;-73
2023/08/19 01:22:09;;;;;;;5.67;5.03;;;;;;;22.37;nan;99244.38;5058199;28;20440;-74
2023/08/19 01:24:35;;;;;;;6.40;4.73;;;;;;;22.38;nan;99241.50;5039419;28;21024;-74
2023/08/19 01:27:05;;;;;;;5.90;4.97;;;;;;;22.42;nan;99247.34;5056774;28;20454;-74
2023/08/19 01:29:30;;;;;;;6.47;5.87;;;;;;;22.44;nan;99245.28;5055638;28;20455;-74
2023/08/19 01:31:56;;;;;;;8.00;5.07;;;;;;;22.48;nan;99247.41;5020806;28;20431;-73
2023/08/19 01:34:24;;;;;;;6.30;4.73;;;;;;;22.50;nan;99247.25;5056241;28;20619;-73
2023/08/19 01:36:56;;;;;;;5.70;5.10;;;;;;;22.45;nan;99246.97;5041045;28;20821;-73
2023/08/19 01:39:23;;;;;;;5.53;5.03;;;;;;;22.33;nan;99254.59;5038476;28;20485;-74
2023/08/19 01:41:49;;;;;;;5.63;5.10;;;;;;;22.21;nan;99253.38;5059939;28;20477;-73
2023/08/19 01:44:15;;;;;;;5.90;5.20;;;;;;;22.12;nan;99251.78;5057316;28;20959;-74
2023/08/19 01:46:40;;;;;;;6.70;5.13;;;;;;;22.03;nan;99259.84;5038719;28;20455;-74
2023/08/19 01:49:06;;;;;;;6.23;5.57;;;;;;;21.97;nan;99257.06;5055157;28;20676;-73
2023/08/19 01:51:32;;;;;;;8.17;5.40;;;;;;;21.92;nan;99256.75;5039885;28;20681;-74
2023/08/19 01:53:58;;;;;;;6.23;5.53;;;;;;;21.89;nan;99257.94;5038499;28;20417;-74
2023/08/19 01:56:23;;;;;;;5.60;4.67;;;;;;;21.86;nan;99256.47;5038240;28;21101;-74
2023/08/19 01:58:48;;;;;;;5.77;5.37;;;;;;;21.88;nan;99267.00;5039646;28;20202;-74
2023/08/19 02:01:14;;;;;;;5.23;4.77;;;;;;;21.92;nan;99256.75;5039993;28;20308;-73
2023/08/19 02:03:39;;;;;;;7.20;4.93;;;;;;;21.96;nan;99252.72;5038467;28;20213;-75
2023/08/19 02:06:05;;;;;;;8.23;5.10;;;;;;;22.01;nan;99253.03;5052468;28;20201;-74
2023/08/19 02:08:30;;;;;;;8.63;6.67;;;;;;;22.04;nan;99253.50;5037787;28;20721;-74
2023/08/19 02:10:56;;;;;;;6.03;4.97;;;;;;;22.07;nan;99258.47;5053311;28;20315;-74
2023/08/19 02:13:21;;;;;;;7.63;5.57;;;;;;;22.08;nan;99267.31;5038442;28;20200;-74
2023/08/19 02:15:47;;;;;;;7.97;5.40;;;;;;;22.09;nan;99266.34;5056033;28;20699;-74
2023/08/19 02:18:14;;;;;;;6.63;5.33;;;;;;;22.05;nan;99267.69;5041679;28;20197;-74
2023/08/19 02:20:39;;;;;;;6.63;6.00;;;;;;;22.03;nan;99269.72;5058189;28;20448;-74
2023/08/19 02:23:04;;;;;;;6.50;5.90;;;;;;;22.02;nan;99270.72;5038651;28;20474;-74
2023/08/19 02:25:30;;;;;;;8.10;5.50;;;;;;;22.01;nan;99269.91;5037308;28;20737;-74
2023/08/19 02:27:55;;;;;;;5.53;5.07;;;;;;;22.01;nan;99271.75;5049875;28;20189;-74
2023/08/19 02:30:21;;;;;;;8.23;4.60;;;;;;;22.01;nan;99272.56;5055885;28;20780;-74
2023/08/19 02:32:46;;;;;;;8.60;6.20;;;;;;;22.03;nan;99278.56;5052529;28;20280;-74
2023/08/19 02:35:11;;;;;;;7.13;5.17;;;;;;;22.03;nan;99275.06;5057581;28;20083;-74
2023/08/19 02:37:37;;;;;;;6.03;5.53;;;;;;;22.02;nan;99274.22;5055501;28;20208;-73
2023/08/19 02:40:04;;;;;;;6.07;5.53;;;;;;;22.03;nan;99273.22;5053663;28;20260;-74
2023/08/19 02:42:30;;;;;;;5.50;4.60;;;;;;;22.03;nan;99273.22;5056573;28;21042;-74
2023/08/19 02:44:56;;;;;;;9.07;5.80;;;;;;;22.02;nan;99278.75;5055958;28;20557;-74
2023/08/19 02:47:22;;;;;;;6.50;5.57;;;;;;;22.02;nan;99276.06;5034924;28;20537;-74
2023/08/19 02:49:48;;;;;;;6.40;5.83;;;;;;;22.01;nan;99283.28;5039906;28;20496;-73
2023/08/19 02:52:14;;;;;;;10.43;5.83;;;;;;;22.01;nan;99277.94;5055927;28;20467;-73
2023/08/19 02:54:39;;;;;;;6.13;5.37;;;;;;;22.00;nan;99275.41;5036973;28;20264;-74
2023/08/19 02:57:05;;;;;;;5.47;4.90;;;;;;;21.98;nan;99274.75;5054576;28;20189;-74
2023/08/19 02:59:30;;;;;;;6.80;5.77;;;;;;;21.96;nan;99285.66;5037503;28;20292;-74
2023/08/19 03:01:56;;;;;;;9.90;5.47;;;;;;;21.92;nan;99278.16;5055909;28;20833;-74
2023/08/19 03:04:21;;;;;;;6.27;5.63;;;;;;;21.88;nan;99273.16;5032647;28;20960;-74
2023/08/19 03:06:46;;;;;;;7.53;6.37;;;;;;;21.86;nan;99269.00;5038380;28;20425;-74
2023/08/19 03:09:12;;;;;;;6.20;5.53;;;;;;;21.80;nan;99275.06;5036763;28;20296;-74
2023/08/19 03:11:37;;;;;;;6.63;5.17;;;;;;;21.74;nan;99278.44;5055993;28;20204;-74
2023/08/19 03:14:03;;;;;;;7.13;5.67;;;;;;;21.67;nan;99270.31;5055239;28;20193;-73
2023/08/19 03:16:28;;;;;;;7.07;4.27;;;;;;;21.61;nan;99271.84;5039112;28;20247;-73
2023/08/19 03:18:54;;;;;;;8.90;8.10;;;;;;;21.55;nan;99274.38;5056203;28;20200;-74
2023/08/19 03:21:19;;;;;;;6.63;5.33;;;;;;;21.50;nan;99268.75;5039237;28;20536;-73
2023/08/19 03:23:45;;;;;;;7.63;5.83;;;;;;;21.47;nan;99266.41;5055313;28;20767;-74
2023/08/19 03:26:10;;;;;;;7.00;5.43;;;;;;;21.46;nan;99273.59;5037703;28;20204;-74
2023/08/19 03:28:36;;;;;;;6.87;6.17;;;;;;;21.48;nan;99273.44;5039994;28;20673;-74
2023/08/19 03:31:09;;;;;;;6.50;5.40;;;;;;;21.51;nan;99271.25;5037824;28;20198;-74
2023/08/19 03:33:34;;;;;;;7.90;6.30;;;;;;;21.52;nan;99275.59;5038880;28;20185;-73
2023/08/19 03:36:00;;;;;;;5.63;5.13;;;;;;;21.52;nan;99280.94;5035873;28;20432;-73
2023/08/19 03:38:26;;;;;;;9.93;5.30;;;;;;;21.52;nan;99282.75;5054755;28;20204;-72
2023/08/19 03:40:53;;;;;;;5.60;4.20;;;;;;;21.49;nan;99278.59;5038767;28;20193;-73
2023/08/19 03:43:18;;;;;;;7.20;5.37;;;;;;;21.48;nan;99282.28;5055848;28;21009;-73
2023/08/19 03:45:44;;;;;;;7.57;5.33;;;;;;;21.47;nan;99277.09;5051603;28;20208;-74
2023/08/19 03:48:09;;;;;;;5.90;5.30;;;;;;;21.42;nan;99281.16;5038850;28;20196;-74
2023/08/19 03:50:34;;;;;;;5.67;5.10;;;;;;;21.33;nan;99284.84;5055333;28;20201;-74
2023/08/19 03:53:00;;;;;;;8.03;5.70;;;;;;;21.24;nan;99283.22;5057860;28;20188;-74
2023/08/19 03:55:26;;;;;;;6.70;5.70;;;;;;;21.17;nan;99279.56;5054659;28;20255;-72
2023/08/19 03:57:51;;;;;;;7.23;5.20;;;;;;;21.16;nan;99285.91;5053914;28;20556;-75
2023/08/19 04:00:16;;;;;;;5.47;4.90;;;;;;;21.12;nan;99290.78;5034069;28;20702;-73
2023/08/19 04:02:45;;;;;;;7.53;4.97;;;;;;;21.06;nan;99291.47;5034718;28;20224;-74
2023/08/19 04:05:11;;;;;;;5.97;5.00;;;;;;;21.06;nan;99287.97;5038611;28;20433;-74
2023/08/19 04:07:37;;;;;;;6.23;5.10;;;;;;;21.06;nan;99291.47;5035873;28;20259;-74
2023/08/19 04:10:04;;;;;;;5.67;4.97;;;;;;;21.09;nan;99293.81;5054288;28;20425;-74
2023/08/19 04:12:29;;;;;;;7.70;5.60;;;;;;;21.13;nan;99295.13;5039224;28;20542;-74
2023/08/19 04:14:55;;;;;;;6.77;5.40;;;;;;;21.12;nan;99295.31;5055874;28;20463;-74
2023/08/19 04:17:21;;;;;;;7.33;4.93;;;;;;;21.06;nan;99296.78;5037321;28;20206;-73
2023/08/19 04:19:46;;;;;;;5.07;4.67;;;;;;;20.99;nan;99302.00;5034753;28;20458;-75
2023/08/19 04:22:15;;;;;;;8.57;5.30;;;;;;;20.94;nan;99304.34;5051813;28;20205;-74
2023/08/19 04:24:40;;;;;;;6.27;5.67;;;;;;;20.90;nan;99307.53;5055443;28;20228;-74
2023/08/19 04:27:06;;;;;;;5.17;4.67;;;;;;;20.88;nan;99310.38;5053026;28;21089;-74
2023/08/19 04:29:35;;;;;;;8.03;5.70;;;;;;;20.89;nan;99303.22;5038069;28;20197;-74
2023/08/19 04:32:02;;;;;;;6.00;5.40;;;;;;;20.91;nan;99303.88;5035448;28;20841;-74
2023/08/19 04:34:29;;;;;;;5.80;4.77;;;;;;;20.88;nan;99307.72;5037356;28;20434;-74
2023/08/19 04:36:56;;;;;;;8.53;5.30;;;;;;;20.89;nan;99314.72;5035435;28;20441;-75
2023/08/19 04:39:23;;;;;;;7.77;5.13;;;;;;;20.93;nan;99316.06;5037052;28;20465;-74
2023/08/19 04:41:49;;;;;;;8.00;6.10;;;;;;;20.97;nan;99322.69;5034454;28;20668;-74
2023/08/19 04:44:18;;;;;;;7.13;5.30;;;;;;;20.97;nan;99325.38;5033398;28;20466;-74
2023/08/19 04:46:43;;;;;;;8.63;5.87;;;;;;;20.98;nan;99324.38;5054812;28;20772;-74
2023/08/19 04:49:09;;;;;;;8.00;5.70;;;;;;;21.02;nan;99326.72;5037490;28;20204;-74
2023/08/19 04:51:35;;;;;;;7.07;4.90;;;;;;;21.00;nan;99327.69;5034269;28;20520;-74
2023/08/19 04:54:03;;;;;;;8.60;5.60;;;;;;;21.01;nan;99331.22;5051454;28;20534;-73
2023/08/19 04:56:29;;;;;;;5.93;5.33;;;;;;;21.06;nan;99331.50;5033361;28;20313;-74
2023/08/19 04:58:55;;;;;;;6.97;4.50;;;;;;;21.14;nan;99336.84;5020933;28;20821;-74
2023/08/19 05:01:20;;;;;;;6.13;4.90;;;;;;;21.23;nan;99340.31;5015910;28;20969;-74
2023/08/19 05:03:47;;;;;;;7.17;5.60;;;;;;;21.30;nan;99333.25;5015330;28;20451;-74
2023/08/19 05:06:13;;;;;;;8.35;5.70;;;;;;;21.38;nan;99330.59;5016555;28;20429;-74
2023/08/19 05:08:40;;;;;;;6.10;5.20;;;;;;;21.49;nan;99331.22;5019887;28;20201;-74
2023/08/19 05:11:06;;;;;;;7.20;5.37;;;;;;;21.69;nan;99328.97;5015771;28;20426;-74
2023/08/19 05:13:32;;;;;;;5.90;4.47;;;;;;;21.98;nan;99323.75;5038651;28;20729;-74
2023/08/19 05:16:01;;;;;;;6.93;5.07;;;;;;;22.37;nan;99327.31;5022537;28;20213;-75
2023/08/19 05:18:28;;;;;;;5.43;4.63;;;;;;;22.77;nan;99330.63;5010664;28;20202;-74
2023/08/19 05:20:53;;;;;;;7.73;5.10;;;;;;;23.13;nan;99331.59;5028838;28;20448;-74
2023/08/19 05:23:19;;;;;;;9.80;4.90;;;;;;;23.50;nan;99328.97;5018855;28;20777;-74
2023/08/19 05:25:44;;;;;;;6.87;5.07;;;;;;;23.92;nan;99330.06;5033547;28;20456;-75
2023/08/19 05:28:11;;;;;;;5.50;4.10;;;;;;;24.36;nan;99326.34;5033029;28;20598;-75
2023/08/19 05:30:36;;;;;;;5.13;4.63;;;;;;;24.77;nan;99317.63;5027465;28;20909;-74
2023/08/19 05:33:02;;;;;;;6.87;4.80;;;;;;;25.11;nan;99322.16;5016255;28;20535;-74
2023/08/19 05:35:27;;;;;;;6.10;5.50;;;;;;;25.38;nan;99326.66;5031365;28;20192;-75
2023/08/19 05:37:53;;;;;;;5.37;4.87;;;;;;;25.66;nan;99316.84;5034393;28;20206;-75
2023/08/19 05:40:19;;;;;;;6.30;4.10;;;;;;;25.96;nan;99314.66;5023712;28;20198;-75
2023/08/19 05:42:44;;;;;;;6.10;5.03;;;;;;;26.28;nan;99315.72;5030063;28;20479;-76
2023/08/19 05:45:10;;;;;;;5.17;4.13;;;;;;;26.62;nan;99312.00;5035614;28;20204;-72
2023/08/19 05:47:37;;;;;;;5.00;4.60;;;;;;;26.96;nan;99312.78;5032161;28;20208;-74
2023/08/19 05:50:03;;;;;;;6.40;4.13;;;;;;;27.27;nan;99312.06;5032239;28;20296;-74
2023/08/19 05:52:29;;;;;;;4.50;4.10;;;;;;;27.56;nan;99313.41;5027088;28;20971;-76
2023/08/19 05:54:55;;;;;;;5.63;3.63;;;;;;;27.65;nan;99318.53;5024800;28;20478;-74
2023/08/19 05:57:21;;;;;;;5.23;4.73;;;;;;;27.66;nan;99322.91;5052369;28;20478;-73
2023/08/19 05:59:46;;;;;;;5.30;4.47;;;;;;;27.75;nan;99327.84;5052654;28;20270;-75
2023/08/19 06:02:12;;;;;;;6.23;4.53;;;;;;;27.63;nan;99337.66;5053085;28;21384;-72
2023/08/19 06:04:43;;;;;;;6.57;5.10;;;;;;;27.39;nan;99344.63;5050254;28;20208;-75
2023/08/19 06:07:09;;;;;;;5.93;4.55;;;;;;;27.20;nan;99343.66;5054621;28;20437;-75
2023/08/19 06:09:34;;;;;;;4.90;4.20;;;;;;;26.96;nan;99339.72;5056299;28;20197;-73
2023/08/19 06:12:00;;;;;;;8.70;5.10;;;;;;;26.82;nan;99335.41;5053182;28;20685;-75
2023/08/19 06:14:25;;;;;;;6.60;4.30;;;;;;;27.00;nan;99330.16;5049244;28;20633;-74
2023/08/19 06:16:51;;;;;;;4.13;3.73;;;;;;;27.46;nan;99337.31;5050935;28;20457;-74
2023/08/19 06:19:16;;;;;;;7.93;4.13;;;;;;;28.09;nan;99344.69;5051281;28;21072;-75
2023/08/19 06:21:41;;;;;;;6.43;3.67;;;;;;;28.67;nan;99341.75;5054187;28;20196;-74
2023/08/19 06:24:07;;;;;;;4.97;4.47;;;;;;;29.15;nan;99337.56;5053075;28;20307;-74
2023/08/19 06:26:32;;;;;;;8.20;4.57;;;;;;;29.62;nan;99337.00;5056773;28;20250;-75
2023/08/19 06:28:58;;;;;;;6.87;5.80;;;;;;;30.12;nan;99325.91;5055789;28;20216;-75
2023/08/19 06:31:24;;;;;;;7.17;5.30;;;;;;;30.57;nan;99328.97;5055053;28;20205;-75
2023/08/19 06:33:53;;;;;;;7.90;4.97;;;;;;;30.94;nan;99333.34;5055357;28;20798;-73
2023/08/19 06:36:23;;;;;;;4.83;4.43;;;;;;;31.26;nan;99341.91;5057796;28;20207;-75
2023/08/19 06:38:54;;;;;;;7.20;4.90;;;;;;;31.40;nan;99340.59;5053140;28;20540;-73
2023/08/19 06:41:20;;;;;;;6.73;4.40;;;;;;;31.51;nan;99347.91;5055764;28;20454;-74
2023/08/19 06:43:47;;;;;;;4.10;3.80;;;;;;;31.71;nan;99352.06;5054281;28;21131;-74
2023/08/19 06:46:13;;;;;;;4.17;3.77;;;;;;;31.94;nan;99354.69;5032604;28;20231;-75
2023/08/19 06:48:40;;;;;;;8.60;4.43;;;;;;;32.14;nan;99358.88;5056060;28;20886;-75
2023/08/19 06:51:05;;;;;;;4.67;4.23;;;;;;;32.37;nan;99361.44;5050909;28;20588;-75
2023/08/19 06:53:31;;;;;;;8.70;4.30;;;;;;;32.55;nan;99348.69;5056427;28;20474;-75
2023/08/19 06:56:19;;;;;;;5.83;3.83;;;;;;;32.60;nan;99352.31;5058316;28;20881;-74
2023/08/19 06:58:51;;;;;;;5.37;4.40;;;;;;;32.62;nan;99346.63;5054847;28;20229;-73
2023/08/19 07:01:23;;;;;;;7.17;4.03;;;;;;;32.59;nan;99349.84;5053464;28;21043;-75
2023/08/19 07:03:50;;;;;;;6.60;4.97;;;;;;;32.45;nan;99351.22;5053859;28;20538;-74
2023/08/19 07:06:19;;;;;;;4.43;4.03;;;;;;;32.14;nan;99350.72;5051533;28;20986;-73
2023/08/19 07:08:45;;;;;;;5.03;4.20;;;;;;;31.60;nan;99353.75;5053815;28;20896;-74
2023/08/19 07:11:10;;;;;;;6.17;3.80;;;;;;;31.04;nan;99360.69;5056538;28;20459;-75
2023/08/19 07:13:36;;;;;;;7.30;4.20;;;;;;;30.59;nan;99364.78;5056283;28;20921;-75
2023/08/19 07:16:04;;;;;;;4.37;4.03;;;;;;;30.66;nan;99364.69;5056891;28;20231;-75
2023/08/19 07:18:37;;;;;;;4.83;3.83;;;;;;;31.02;nan;99371.75;5053580;28;20559;-75
2023/08/19 07:21:04;;;;;;;5.53;3.60;;;;;;;31.51;nan;99371.47;5056216;28;20541;-75
2023/08/19 07:23:30;;;;;;;8.83;4.73;;;;;;;31.93;nan;99374.78;5054947;28;20470;-75
2023/08/19 07:25:57;;;;;;;5.13;4.33;;;;;;;32.42;nan;99376.19;5055350;28;20462;-75
2023/08/19 07:28:23;;;;;;;4.13;3.63;;;;;;;32.91;nan;99374.53;5053613;28;20506;-76
2023/08/19 07:30:50;;;;;;;3.97;3.40;;;;;;;33.18;nan;99379.31;5052429;28;20451;-75
2023/08/19 07:33:16;;;;;;;9.00;4.20;;;;;;;33.15;nan;99374.38;5057267;28;20463;-75
2023/08/19 07:35:44;;;;;;;6.38;4.70;;;;;;;32.80;nan;99370.84;5055471;28;20437;-75
2023/08/19 07:38:10;;;;;;;4.93;4.43;;;;;;;32.43;nan;99383.25;5057425;28;20197;-75
2023/08/19 07:40:35;;;;;;;6.93;4.20;;;;;;;32.03;nan;99385.03;5056708;28;20463;-75
2023/08/19 07:43:01;;;;;;;5.53;5.03;;;;;;;31.56;nan;99396.03;5054393;28;20217;-75
2023/08/19 07:45:26;;;;;;;6.63;5.77;;;;;;;31.09;nan;99399.59;5055772;28;20253;-75
2023/08/19 07:47:52;;;;;;;5.17;4.67;;;;;;;30.67;nan;99408.88;5053430;28;20246;-75
2023/08/19 07:50:17;;;;;;;5.20;4.43;;;;;;;30.36;nan;99408.13;5055329;28;20527;-75
2023/08/19 07:52:42;;;;;;;7.63;5.53;;;;;;;30.16;nan;99409.22;5056286;28;20216;-75
2023/08/19 07:55:10;;;;;;;5.13;4.73;;;;;;;30.15;nan;99407.53;5056036;28;20661;-75
2023/08/19 07:57:36;;;;;;;4.93;4.10;;;;;;;30.08;nan;99409.50;5053640;28;20458;-74
2023/08/19 08:00:01;;;;;;;5.00;4.60;;;;;;;29.90;nan;99409.56;5054353;28;20459;-74
2023/08/19 08:02:27;;;;;;;5.10;4.60;;;;;;;29.76;nan;99409.75;5055724;28;20251;-75
2023/08/19 08:04:52;;;;;;;6.27;4.80;;;;;;;29.78;nan;99418.44;5055899;28;20556;-74
2023/08/19 08:07:18;;;;;;;7.37;4.47;;;;;;;30.10;nan;99412.81;5065532;28;20297;-75
2023/08/19 08:09:45;;;;;;;8.20;4.13;;;;;;;30.66;nan;99413.47;5054477;28;20461;-75
2023/08/19 08:12:11;;;;;;;6.53;4.17;;;;;;;31.51;nan;99412.19;5056664;28;20238;-76
2023/08/19 08:14:36;;;;;;;4.43;3.80;;;;;;;32.51;nan;99408.16;5056975;28;20466;-75
2023/08/19 08:17:02;;;;;;;6.20;4.60;;;;;;;33.28;nan;99401.22;5054854;28;20454;-76
2023/08/19 08:19:28;;;;;;;7.33;5.43;;;;;;;34.06;nan;99403.84;5052117;28;20758;-76
2023/08/19 08:21:53;;;;;;;5.37;4.50;;;;;;;34.62;nan;99398.09;5053575;28;20715;-75
2023/08/19 08:24:20;;;;;;;4.57;4.17;;;;;;;35.09;nan;99397.38;5054272;28;20565;-74
2023/08/19 08:26:46;;;;;;;5.87;4.63;;;;;;;35.43;nan;99398.66;5056105;28;20707;-75
2023/08/19 08:29:12;;;;;;;5.03;4.23;;;;;;;35.68;nan;99405.34;5046545;28;20910;-74
2023/08/19 08:31:37;;;;;;;5.97;4.43;;;;;;;35.88;nan;99405.38;5046148;28;20477;-76
2023/08/19 08:34:03;;;;;;;5.07;3.80;;;;;;;35.98;nan;99404.59;5050332;28;20732;-76
2023/08/19 08:36:28;;;;;;;6.40;5.20;;;;;;;35.88;nan;99399.09;5044300;28;20481;-75
2023/08/19 08:38:53;;;;;;;7.00;4.20;;;;;;;35.60;nan;99395.75;5045096;28;20204;-76
2023/08/19 08:41:20;;;;;;;5.97;4.53;;;;;;;35.38;nan;99395.06;5048269;28;20553;-75
2023/08/19 08:43:47;;;;;;;4.93;4.40;;;;;;;35.06;nan;99395.97;5056039;28;20735;-76
2023/08/19 08:46:14;;;;;;;4.67;3.60;;;;;;;34.79;nan;99399.59;5052036;28;20477;-73
2023/08/19 08:48:41;;;;;;;6.27;4.10;;;;;;;34.71;nan;99393.81;5056197;28;20963;-75
2023/08/19 08:54:18;;;;;;;4.43;3.50;;;;;;;34.59;nan;99402.16;5910810;22;21077;-78
2023/08/19 08:56:43;;;;;;;5.93;3.87;;;;;;;34.47;nan;99399.59;5052933;28;20480;-78
2023/08/19 08:59:09;;;;;;;4.77;4.27;;;;;;;34.47;nan;99391.41;5054358;28;20459;-79
2023/08/19 09:01:35;;;;;;;5.47;3.93;;;;;;;34.51;nan;99397.16;5055643;28;20678;-78
2023/08/19 09:04:08;;;;;;;5.07;4.57;;;;;;;34.65;nan;99397.56;5053377;28;20467;-78
2023/08/19 09:06:37;;;;;;;6.07;3.90;;;;;;;34.89;nan;99393.41;5053738;28;20543;-78
2023/08/19 09:09:04;;;;;;;4.43;3.63;;;;;;;35.07;nan;99383.16;5053294;28;20908;-79
2023/08/19 09:11:35;;;;;;;4.97;4.27;;;;;;;35.30;nan;99393.66;5055255;28;20830;-79
2023/08/19 09:14:23;;;;;;;5.40;4.03;;;;;;;35.45;nan;99384.72;5054874;28;20974;-77
2023/08/19 09:16:49;;;;;;;3.60;3.10;;;;;;;35.45;nan;99391.00;5040514;28;20765;-77
2023/08/19 09:19:15;;;;;;;4.50;3.40;;;;;;;35.60;nan;99387.53;5054022;28;20976;-77
2023/08/19 09:21:41;;;;;;;3.30;3.00;;;;;;;35.79;nan;99398.81;5053831;28;20197;-77
2023/08/19 09:24:06;;;;;;;5.20;3.37;;;;;;;35.95;nan;99398.84;5051082;28;20205;-77
2023/08/19 09:26:32;;;;;;;3.37;3.00;;;;;;;36.00;nan;99396.09;5053925;28;20449;-77
2023/08/19 09:28:58;;;;;;;7.60;3.50;;;;;;;35.80;nan;99394.97;5055812;28;20193;-77
2023/08/19 09:31:24;;;;;;;12.80;4.13;;;;;;;35.62;nan;99395.44;5051808;28;20280;-76
2023/08/19 09:33:54;;;;;;;4.77;2.80;;;;;;;35.49;nan;99395.94;5055352;28;20288;-77
2023/08/19 09:36:24;;;;;;;3.63;2.80;;;;;;;35.32;nan;99399.66;5055457;28;20528;-78
2023/08/19 09:38:56;;;;;;;3.20;2.93;;;;;;;35.27;nan;99396.94;5051911;28;20458;-77
2023/08/19 09:41:27;;;;;;;2.90;2.57;;;;;;;35.29;nan;99400.19;5052476;28;20715;-77
2023/08/19 09:43:53;;;;;;;2.70;2.50;;;;;;;35.32;nan;99402.41;5059173;28;20590;-77
2023/08/19 09:46:19;;;;;;;3.83;2.90;;;;;;;35.30;nan;99409.25;5055575;28;20624;-76
2023/08/19 09:48:53;;;;;;;3.77;3.20;;;;;;;35.21;nan;99404.28;5057678;28;20542;-76
2023/08/19 09:51:25;;;;;;;3.13;2.77;;;;;;;35.08;nan;99407.47;5058546;28;20677;-76
2023/08/19 09:53:51;;;;;;;4.40;3.50;;;;;;;35.01;nan;99415.84;5057600;28;20492;-77
2023/08/19 09:56:21;;;;;;;4.50;2.83;;;;;;;34.96;nan;99415.81;5054247;28;20463;-76
2023/08/19 09:58:49;;;;;;;4.20;3.00;;;;;;;34.88;nan;99413.56;5060135;28;20713;-77
2023/08/19 10:01:14;;;;;;;5.53;2.77;;;;;;;34.84;nan;99409.75;5059525;28;20443;-76
2023/08/19 10:03:40;;;;;;;3.70;2.63;;;;;;;34.74;nan;99420.56;5061133;28;20487;-76
2023/08/19 10:06:08;;;;;;;4.10;3.20;;;;;;;34.77;nan;99417.31;5064857;28;20437;-77
2023/08/19 10:08:40;;;;;;;4.20;3.40;;;;;;;34.85;nan;99424.19;5065302;28;20205;-77
2023/08/19 10:11:06;;;;;;;3.43;2.90;;;;;;;35.03;nan;99419.16;5064721;28;20439;-77
2023/08/19 10:13:33;;;;;;;3.57;3.10;;;;;;;35.15;nan;99429.06;5063543;28;20450;-77
2023/08/19 10:16:02;;;;;;;3.50;2.80;;;;;;;35.32;nan;99420.69;5063911;28;20455;-77
2023/08/19 10:18:32;;;;;;;6.43;2.97;;;;;;;35.59;nan;99417.84;5060921;28;20463;-77
2023/08/19 10:21:04;;;;;;;3.17;2.80;;;;;;;35.85;nan;99421.50;5064646;28;20549;-76
2023/08/19 10:23:31;;;;;;;3.40;2.67;;;;;;;35.96;nan;99416.88;5063680;28;20990;-77
2023/08/19 10:25:56;;;;;;;4.03;3.20;;;;;;;36.06;nan;99425.16;5059855;28;20550;-77
2023/08/19 10:28:29;;;;;;;3.83;3.53;;;;;;;36.16;nan;99424.34;5055903;28;20556;-77
2023/08/19 10:31:05;;;;;;;3.70;3.40;;;;;;;36.30;nan;99418.09;5063955;28;20260;-77
2023/08/19 10:33:41;;;;;;;4.33;3.40;;;;;;;36.41;nan;99415.38;5067888;28;20500;-77
2023/08/19 10:36:08;;;;;;;6.97;4.70;;;;;;;36.49;nan;99412.09;5062274;28;20439;-77
2023/08/19 10:38:47;;;;;;;8.40;3.70;;;;;;;36.52;nan;99408.81;5042122;28;20976;-77
2023/08/19 10:41:22;;;;;;;4.07;2.90;;;;;;;36.47;nan;99406.88;5063435;28;20470;-77
2023/08/19 10:44:00;;;;;;;3.50;3.20;;;;;;;36.41;nan;99407.16;5063702;28;20462;-77
2023/08/19 10:46:32;;;;;;;5.63;3.53;;;;;;;36.41;nan;99405.25;5063488;28;20887;-77
2023/08/19 10:48:57;;;;;;;3.43;3.13;;;;;;;36.48;nan;99408.50;5059943;28;20459;-77
2023/08/19 10:51:47;;;;;;;4.33;3.30;;;;;;;36.52;nan;99406.06;5041628;28;20556;-77
2023/08/19 10:54:13;;;;;;;4.23;3.50;;;;;;;36.53;nan;99410.44;5063187;28;20217;-77
2023/08/19 10:57:10;;;;;;;6.50;3.47;;;;;;;36.49;nan;99406.63;5060788;28;20474;-77
2023/08/19 10:59:37;;;;;;;3.40;3.10;;;;;;;36.59;nan;99403.88;5056357;28;20463;-77
2023/08/19 11:02:04;;;;;;;5.40;3.20;;;;;;;36.75;nan;99400.06;5060349;28;21131;-77
2023/08/19 11:04:30;;;;;;;4.20;3.37;;;;;;;36.85;nan;99401.97;5061602;28;20479;-77
2023/08/19 11:06:57;;;;;;;4.57;3.50;;;;;;;36.91;nan;99405.50;5060871;28;20654;-77
2023/08/19 11:09:24;;;;;;;9.23;3.43;;;;;;;36.93;nan;99409.59;5056771;28;20448;-77
2023/08/19 11:11:50;;;;;;;3.73;3.43;;;;;;;36.89;nan;99404.94;5060918;28;20534;-77
2023/08/19 11:14:19;;;;;;;4.83;3.90;;;;;;;36.83;nan;99395.94;5060578;28;20459;-77
2023/08/19 11:16:54;;;;;;;4.10;2.90;;;;;;;36.80;nan;99403.88;5060076;28;20455;-77
2023/08/19 11:19:21;;;;;;;3.80;3.43;;;;;;;36.77;nan;99406.06;5061324;28;20469;-77
2023/08/19 11:21:47;;;;;;;4.10;3.17;;;;;;;36.75;nan;99404.69;5060112;28;20965;-78
2023/08/19 11:24:13;;;;;;;8.00;3.10;;;;;;;36.79;nan;99405.00;5061164;28;20472;-77
2023/08/19 11:26:43;;;;;;;6.70;3.87;;;;;;;36.77;nan;99405.25;5059739;28;20197;-77
2023/08/19 11:29:10;;;;;;;5.80;3.87;;;;;;;36.71;nan;99407.19;5059463;28;20558;-77
2023/08/19 11:34:09;;;;;;;4.63;3.60;;;;;;;36.66;nan;99412.66;5060581;22;20500;-76
2023/08/19 11:36:38;;;;;;;3.63;3.33;;;;;;;36.58;nan;99415.13;5018985;28;20816;-76
2023/08/19 11:39:04;;;;;;;5.33;3.10;;;;;;;36.57;nan;99422.50;5018974;28;20469;-77
2023/08/19 11:41:30;;;;;;;3.80;3.23;;;;;;;36.68;nan;99413.19;5021228;28;21099;-76
2023/08/19 11:43:57;;;;;;;4.90;4.33;;;;;;;36.77;nan;99419.75;5018753;28;20488;-77
2023/08/19 11:46:27;;;;;;;5.77;3.23;;;;;;;36.83;nan;99414.28;5002467;28;20461;-77
2023/08/19 11:48:52;;;;;;;6.00;3.03;;;;;;;36.90;nan;99409.34;5019997;28;20958;-76
2023/08/19 11:51:19;;;;;;;7.10;3.70;;;;;;;36.84;nan;99411.28;5021270;28;20484;-76
2023/08/19 11:53:48;;;;;;;4.60;4.03;;;;;;;36.72;nan;99422.50;5022911;28;20800;-76
2023/08/19 11:56:14;;;;;;;3.60;3.27;;;;;;;36.64;nan;99423.03;5058566;22;20523;-76